createdAt,value
2023-04-09T00:01:11.892Z,15.80
2023-04-09T00:03:39.193Z,14.95
2023-04-09T00:06:06.774Z,16.15
2023-04-09T00:08:33.721Z,15.05
2023-04-09T00:11:00.504Z,15.43
2023-04-09T00:13:38.482Z,14.85
2023-04-09T00:16:06.657Z,15.75
2023-04-09T00:18:33.374Z,15.70
2023-04-09T00:21:00.103Z,16.23
2023-04-09T00:23:26.805Z,16.95
2023-04-09T00:25:53.666Z,16.58
2023-04-09T00:28:20.670Z,15.88
2023-04-09T00:30:47.390Z,17.23
2023-04-09T00:33:14.080Z,16.88
2023-04-09T00:35:41.153Z,17.25
2023-04-09T00:38:07.922Z,18.88
2023-04-09T00:40:34.621Z,18.42
2023-04-09T00:43:02.483Z,19.65
2023-04-09T00:45:29.317Z,19.55
2023-04-09T00:47:56.200Z,19.77
2023-04-09T00:50:22.981Z,18.65
2023-04-09T00:52:49.769Z,20.40
2023-04-09T00:55:17.971Z,20.83
2023-04-09T00:57:44.692Z,21.77
2023-04-09T01:00:13.170Z,21.42
2023-04-09T01:02:40.849Z,21.50
2023-04-09T01:05:08.229Z,21.02
2023-04-09T01:08:13.567Z,21.95
2023-04-09T01:10:54.108Z,22.30
2023-04-09T01:13:42.302Z,22.42
2023-04-09T01:16:12.237Z,23.35
2023-04-09T01:19:02.192Z,24.38
2023-04-09T01:21:34.351Z,24.95
2023-04-09T01:24:26.532Z,25.13
2023-04-09T01:27:06.818Z,26.90
2023-04-09T01:29:53.266Z,25.77
2023-04-09T01:32:21.171Z,26.63
2023-04-09T01:34:49.275Z,26.23
2023-04-09T01:39:43.383Z,24.02
2023-04-09T01:42:12.292Z,26.92
2023-04-09T01:44:40.481Z,25.23
2023-04-09T01:47:08.928Z,26.95
2023-04-09T01:49:36.293Z,25.80
2023-04-09T01:52:03.460Z,26.38
2023-04-09T01:54:30.288Z,26.15
2023-04-09T01:56:57.833Z,25.42
2023-04-09T01:59:24.743Z,25.33
2023-04-09T02:01:59.864Z,24.58
2023-04-09T02:04:34.397Z,25.40
2023-04-09T02:07:15.540Z,24.80
2023-04-09T02:09:46.102Z,25.60
2023-04-09T02:12:16.794Z,23.60
2023-04-09T02:14:47.194Z,24.92
2023-04-09T02:17:13.950Z,24.73
2023-04-09T02:19:40.745Z,25.33
2023-04-09T02:22:07.961Z,25.38
2023-04-09T02:24:34.694Z,24.15
2023-04-09T02:27:02.230Z,24.23
2023-04-09T02:29:29.056Z,25.67
2023-04-09T02:31:55.705Z,23.98
2023-04-09T02:34:23.216Z,25.38
2023-04-09T02:36:49.900Z,24.60
2023-04-09T02:39:16.787Z,24.38
2023-04-09T02:41:44.030Z,25.58
2023-04-09T02:44:10.759Z,26.23
2023-04-09T02:46:38.816Z,25.13
2023-04-09T02:49:05.626Z,26.05
2023-04-09T02:51:34.833Z,25.30
2023-04-09T02:54:02.045Z,23.98
2023-04-09T02:56:28.790Z,25.25
2023-04-09T02:58:55.620Z,24.77
2023-04-09T03:01:22.851Z,24.55
2023-04-09T03:03:50.204Z,24.80
2023-04-09T03:06:18.514Z,24.30
2023-04-09T03:08:45.642Z,24.38
2023-04-09T03:11:12.414Z,24.88
2023-04-09T03:13:39.137Z,23.52
2023-04-09T03:16:06.328Z,24.58
2023-04-09T03:18:33.054Z,25.77
2023-04-09T03:20:59.802Z,24.77
2023-04-09T03:23:31.007Z,25.08
2023-04-09T03:26:06.265Z,25.10
2023-04-09T03:28:45.392Z,25.10
2023-04-09T03:31:14.011Z,24.23
2023-04-09T03:33:42.298Z,24.95
2023-04-09T03:36:10.117Z,24.35
2023-04-09T03:38:57.193Z,25.00
2023-04-09T03:41:31.521Z,24.38
2023-04-09T03:44:02.556Z,26.05
2023-04-09T03:46:36.334Z,25.33
2023-04-09T03:49:03.434Z,24.30
2023-04-09T03:51:38.750Z,24.63
2023-04-09T03:54:05.634Z,24.95
2023-04-09T03:56:33.102Z,24.40
2023-04-09T03:59:01.331Z,24.95
2023-04-09T04:01:36.799Z,24.48
2023-04-09T04:04:03.663Z,25.02
2023-04-09T04:06:35.970Z,23.77
2023-04-09T04:09:22.980Z,24.85
2023-04-09T04:11:58.966Z,24.52
2023-04-09T04:14:39.883Z,25.63
2023-04-09T04:17:17.502Z,24.58
2023-04-09T04:19:44.463Z,24.23
2023-04-09T04:22:11.306Z,25.08
2023-04-09T04:24:41.473Z,24.52
2023-04-09T04:27:08.547Z,25.20
2023-04-09T04:29:37.652Z,24.33
2023-04-09T04:32:11.723Z,23.90
2023-04-09T04:34:38.819Z,25.48
2023-04-09T04:37:15.445Z,23.92
2023-04-09T04:39:42.315Z,24.17
2023-04-09T04:42:12.680Z,24.52
2023-04-09T04:44:39.829Z,25.50
2023-04-09T04:47:26.845Z,25.10
2023-04-09T04:49:53.611Z,25.93
2023-04-09T04:52:21.412Z,25.58
2023-04-09T04:54:51.458Z,24.30
2023-04-09T04:57:22.010Z,24.58
2023-04-09T04:59:48.789Z,24.90
2023-04-09T05:02:17.491Z,25.73
2023-04-09T05:05:02.095Z,24.15
2023-04-09T05:07:36.003Z,25.27
2023-04-09T05:10:03.654Z,24.73
2023-04-09T05:12:36.514Z,25.25
2023-04-09T05:15:04.542Z,24.27
2023-04-09T05:17:31.430Z,24.45
2023-04-09T05:19:58.186Z,25.75
2023-04-09T05:22:44.086Z,24.13
2023-04-09T05:25:11.067Z,25.27
2023-04-09T05:27:40.767Z,25.58
2023-04-09T05:30:08.705Z,25.20
2023-04-09T05:32:35.634Z,25.00
2023-04-09T05:35:03.047Z,24.73
2023-04-09T05:37:31.388Z,23.48
2023-04-09T05:39:58.066Z,24.63
2023-04-09T05:42:25.209Z,25.75
2023-04-09T05:45:05.488Z,24.60
2023-04-09T05:47:32.513Z,24.00
2023-04-09T05:50:04.503Z,25.25
2023-04-09T05:52:32.177Z,24.42
2023-04-09T05:54:59.071Z,25.40
2023-04-09T05:57:38.643Z,24.42
2023-04-09T06:00:08.198Z,24.88
2023-04-09T06:02:43.208Z,23.47
2023-04-09T06:05:10.334Z,24.13
2023-04-09T06:07:37.090Z,24.63
2023-04-09T06:10:04.002Z,23.80
2023-04-09T06:12:30.656Z,23.33
2023-04-09T06:14:57.300Z,23.27
2023-04-09T06:17:24.036Z,23.30
2023-04-09T06:19:50.876Z,23.63
2023-04-09T06:22:17.575Z,23.67
2023-04-09T06:24:44.345Z,23.70
2023-04-09T06:27:11.253Z,24.05
2023-04-09T06:29:37.911Z,24.73
2023-04-09T06:32:05.785Z,24.02
2023-04-09T06:36:59.143Z,23.42
2023-04-09T06:39:25.791Z,22.00
2023-04-09T06:41:52.609Z,22.80
2023-04-09T06:44:37.529Z,24.42
2023-04-09T06:47:04.248Z,24.00
2023-04-09T06:49:31.066Z,22.95
2023-04-09T06:51:58.106Z,23.65
2023-04-09T06:54:24.999Z,24.10
2023-04-09T06:56:51.919Z,26.30
2023-04-09T06:59:18.692Z,26.67
2023-04-09T07:01:45.917Z,23.85
2023-04-09T07:04:12.822Z,23.58
2023-04-09T07:06:40.474Z,24.90
2023-04-09T07:09:07.562Z,21.52
2023-04-09T07:11:34.224Z,25.47
2023-04-09T07:14:00.943Z,23.02
2023-04-09T07:16:27.610Z,24.05
2023-04-09T07:18:54.261Z,24.83
2023-04-09T07:21:21.032Z,24.08
2023-04-09T07:23:47.957Z,23.48
2023-04-09T07:26:14.886Z,24.23
2023-04-09T07:28:42.308Z,24.67
2023-04-09T07:31:09.535Z,24.83
2023-04-09T07:33:36.246Z,24.35
2023-04-09T07:36:03.199Z,24.67
2023-04-09T07:38:30.377Z,23.03
2023-04-09T07:40:57.146Z,23.85
2023-04-09T07:43:23.892Z,23.42
2023-04-09T07:45:53.334Z,27.63
2023-04-09T07:48:20.028Z,28.50
2023-04-09T07:50:46.711Z,30.02
2023-04-09T07:53:13.434Z,24.95
2023-04-09T07:55:41.019Z,25.27
2023-04-09T07:58:09.952Z,25.48
2023-04-09T08:00:39.089Z,25.00
2023-04-09T08:03:05.986Z,24.40
2023-04-09T08:05:32.727Z,25.00
2023-04-09T08:07:59.380Z,25.27
2023-04-09T08:10:26.124Z,24.73
2023-04-09T08:12:52.915Z,25.13
2023-04-09T08:15:20.086Z,24.02
2023-04-09T08:17:46.864Z,23.40
2023-04-09T08:20:13.757Z,24.15
2023-04-09T08:22:41.217Z,24.80
2023-04-09T08:25:08.220Z,22.67
2023-04-09T08:27:36.101Z,23.80
2023-04-09T08:30:03.712Z,22.63
2023-04-09T08:32:30.538Z,22.85
2023-04-09T08:34:57.351Z,21.42
2023-04-09T08:37:24.051Z,20.92
2023-04-09T08:39:50.948Z,21.58
2023-04-09T08:42:19.049Z,22.87
2023-04-09T08:47:13.563Z,23.30
2023-04-09T08:49:41.326Z,21.45
2023-04-09T08:52:08.368Z,22.52
2023-04-09T08:54:35.636Z,21.17
2023-04-09T08:57:05.456Z,21.23
2023-04-09T08:59:36.832Z,22.42
2023-04-09T09:02:07.834Z,21.67
2023-04-09T09:04:50.921Z,21.98
2023-04-09T09:07:17.791Z,23.15
2023-04-09T09:09:58.769Z,22.33
2023-04-09T09:12:34.661Z,21.25
2023-04-09T09:15:01.587Z,20.95
2023-04-09T09:17:28.399Z,21.35
2023-04-09T09:19:55.212Z,22.63
2023-04-09T09:22:21.945Z,22.35
2023-04-09T09:24:50.626Z,20.73
2023-04-09T09:27:39.621Z,20.45
2023-04-09T09:30:08.587Z,20.35
2023-04-09T09:32:35.926Z,19.35
2023-04-09T09:35:04.758Z,21.15
2023-04-09T09:37:32.135Z,22.98
2023-04-09T09:39:59.907Z,20.63
2023-04-09T09:42:27.585Z,19.85
2023-04-09T09:44:55.399Z,21.45
2023-04-09T09:52:28.330Z,16.80
2023-04-09T09:54:58.864Z,18.58
2023-04-09T09:57:30.655Z,18.90
2023-04-09T10:00:08.068Z,18.48
2023-04-09T10:02:48.307Z,16.58
2023-04-09T10:05:15.788Z,17.87
2023-04-09T10:07:43.587Z,19.00
2023-04-09T10:10:10.668Z,18.65
2023-04-09T10:12:38.787Z,15.95
2023-04-09T10:15:06.382Z,14.95
2023-04-09T10:17:33.083Z,13.32
2023-04-09T10:22:40.375Z,14.98
2023-04-09T10:25:08.131Z,16.02
2023-04-09T10:30:01.803Z,14.87
2023-04-09T10:32:36.201Z,15.70
2023-04-09T10:35:04.246Z,14.25
2023-04-09T10:39:58.014Z,11.57
2023-04-09T10:42:35.268Z,12.70
2023-04-09T10:45:08.421Z,10.80
2023-04-09T10:47:40.481Z,10.43
2023-04-09T10:50:30.871Z,12.52
2023-04-09T10:53:00.334Z,12.98
2023-04-09T10:55:38.437Z,12.35
2023-04-09T10:58:07.184Z,12.65
2023-04-09T11:00:46.457Z,12.52
2023-04-09T11:03:29.013Z,13.07
2023-04-09T11:06:09.074Z,12.68
2023-04-09T11:08:37.947Z,15.73
2023-04-09T11:11:04.885Z,20.35
2023-04-09T11:13:32.882Z,11.60
2023-04-09T11:16:01.423Z,11.57
2023-04-09T11:18:30.745Z,11.93
2023-04-09T11:20:59.560Z,11.15
2023-04-09T11:23:27.491Z,11.32
2023-04-09T11:25:55.308Z,10.52
2023-04-09T11:30:52.961Z,10.65
2023-04-09T11:33:20.395Z,11.95
2023-04-09T11:35:48.340Z,11.30
2023-04-09T11:38:15.300Z,13.07
2023-04-09T11:40:49.487Z,9.37
2023-04-09T11:43:17.117Z,10.02
2023-04-09T11:45:44.429Z,10.20
2023-04-09T11:48:12.273Z,9.60
2023-04-09T11:53:19.497Z,9.80
2023-04-09T11:55:51.575Z,9.52
2023-04-09T11:58:19.081Z,9.35
2023-04-09T12:00:46.152Z,9.40
2023-04-09T12:03:13.499Z,8.75
2023-04-09T12:05:50.648Z,7.82
2023-04-09T12:08:23.817Z,7.63
2023-04-09T12:10:53.565Z,7.40
2023-04-09T12:13:20.964Z,8.90
2023-04-09T12:15:49.214Z,9.53
2023-04-09T12:18:15.996Z,9.93
2023-04-09T12:20:44.763Z,9.35
2023-04-09T12:23:12.549Z,9.40
2023-04-09T12:28:08.815Z,7.97
2023-04-09T12:30:36.276Z,7.65
2023-04-09T12:33:04.102Z,7.00
2023-04-09T12:37:59.385Z,7.43
2023-04-09T12:40:26.452Z,8.45
2023-04-09T12:42:54.104Z,8.87
2023-04-09T12:45:21.473Z,8.82
2023-04-09T12:47:48.753Z,8.68
2023-04-09T12:50:18.807Z,8.30
2023-04-09T12:52:46.315Z,7.05
2023-04-09T12:55:14.069Z,8.23
2023-04-09T13:00:09.776Z,7.72
2023-04-09T13:02:36.965Z,7.30
2023-04-09T13:05:04.647Z,7.90
2023-04-09T13:07:31.448Z,7.22
2023-04-09T13:09:58.206Z,7.30
2023-04-09T13:12:25.463Z,7.80
2023-04-09T13:14:54.420Z,7.22
2023-04-09T13:17:21.789Z,6.72
2023-04-09T13:19:48.802Z,7.38
2023-04-09T13:22:15.506Z,6.97
2023-04-09T13:24:43.288Z,7.88
2023-04-09T13:29:38.561Z,7.07
2023-04-09T13:32:10.861Z,7.05
2023-04-09T13:34:38.754Z,6.57
2023-04-09T13:37:05.708Z,6.85
2023-04-09T13:39:33.030Z,5.93
2023-04-09T13:42:02.503Z,6.55
2023-04-09T13:44:32.644Z,6.03
2023-04-09T13:46:59.502Z,6.10
2023-04-09T13:49:27.472Z,6.20
2023-04-09T13:51:54.274Z,5.35
2023-04-09T13:54:20.985Z,7.57
2023-04-09T13:56:47.748Z,8.45
2023-04-09T13:59:14.402Z,7.95
2023-04-09T14:01:41.362Z,6.45
2023-04-09T14:04:08.379Z,6.88
2023-04-09T14:06:35.288Z,6.68
2023-04-09T14:09:02.065Z,4.97
2023-04-09T14:11:28.953Z,5.57
2023-04-09T14:13:56.023Z,4.55
2023-04-09T14:16:23.713Z,5.32
2023-04-09T14:18:50.811Z,5.15
2023-04-09T14:21:18.484Z,5.65
2023-04-09T14:23:45.312Z,6.00
2023-04-09T14:26:12.104Z,5.22
2023-04-09T14:28:38.893Z,5.45
2023-04-09T14:31:06.395Z,5.47
2023-04-09T14:33:33.074Z,5.18
2023-04-09T14:35:59.904Z,5.82
2023-04-09T14:38:26.811Z,5.67
2023-04-09T14:40:53.621Z,5.07
2023-04-09T14:43:20.506Z,4.67
2023-04-09T14:45:47.457Z,5.30
2023-04-09T14:48:14.159Z,5.70
2023-04-09T14:50:41.249Z,4.82
2023-04-09T14:53:08.105Z,5.03
2023-04-09T14:55:34.804Z,5.13
2023-04-09T14:58:04.450Z,4.93
2023-04-09T15:00:31.964Z,5.35
2023-04-09T15:02:59.276Z,5.28
2023-04-09T15:05:27.176Z,4.85
2023-04-09T15:07:55.575Z,4.85
2023-04-09T15:10:22.258Z,4.43
2023-04-09T15:12:49.008Z,4.50
2023-04-09T15:15:15.690Z,4.37
2023-04-09T15:17:42.529Z,4.30
2023-04-09T15:20:09.666Z,4.63
2023-04-09T15:22:36.429Z,4.75
2023-04-09T15:25:03.319Z,4.50
2023-04-09T15:27:30.301Z,4.38
2023-04-09T15:29:57.015Z,4.28
2023-04-09T15:32:26.421Z,4.20
2023-04-09T15:34:53.136Z,4.00
2023-04-09T15:37:22.995Z,4.32
2023-04-09T15:42:20.349Z,4.07
2023-04-09T15:44:47.072Z,4.82
2023-04-09T15:47:13.911Z,4.73
2023-04-09T15:49:41.264Z,5.57
2023-04-09T15:52:09.234Z,4.50
2023-04-09T15:54:36.039Z,3.88
2023-04-09T15:57:05.644Z,4.20
2023-04-09T15:59:32.365Z,4.13
2023-04-09T16:01:59.848Z,4.22
2023-04-09T16:06:55.460Z,4.40
2023-04-09T16:09:22.822Z,4.15
2023-04-09T16:11:50.995Z,4.03
2023-04-09T16:14:17.849Z,4.05
2023-04-09T16:16:49.535Z,4.00
2023-04-09T16:19:20.423Z,4.45
2023-04-09T16:21:47.521Z,4.47
2023-04-09T16:24:14.915Z,5.00
2023-04-09T16:29:12.737Z,3.10
2023-04-09T16:31:42.217Z,3.20
2023-04-09T16:34:09.140Z,3.35
2023-04-09T16:36:37.131Z,3.60
2023-04-09T16:39:04.794Z,3.38
2023-04-09T16:41:31.699Z,4.10
2023-04-09T16:43:58.556Z,3.80
2023-04-09T16:46:25.421Z,3.90
2023-04-09T16:48:52.395Z,3.65
2023-04-09T16:51:19.396Z,3.72
2023-04-09T16:53:46.215Z,3.53
2023-04-09T16:56:12.968Z,3.40
2023-04-09T16:58:39.837Z,3.45
2023-04-09T17:01:06.594Z,4.20
2023-04-09T17:03:33.417Z,4.07
2023-04-09T17:06:00.350Z,3.58
2023-04-09T17:08:27.117Z,6.32
2023-04-09T17:11:01.884Z,7.73
2023-04-09T17:13:29.810Z,3.85
2023-04-09T17:15:56.833Z,3.42
2023-04-09T17:18:23.982Z,3.00
2023-04-09T17:20:51.039Z,3.90
2023-04-09T17:23:17.989Z,3.70
2023-04-09T17:25:44.866Z,3.50
2023-04-09T17:28:11.940Z,3.30
2023-04-09T17:30:38.673Z,3.90
2023-04-09T17:33:05.890Z,3.72
2023-04-09T17:35:32.842Z,3.40
2023-04-09T17:38:01.251Z,13.07
2023-04-09T17:40:28.549Z,9.15
2023-04-09T17:42:55.634Z,9.63
2023-04-09T17:45:22.302Z,12.05
2023-04-09T17:47:51.105Z,5.55
2023-04-09T17:50:18.366Z,6.10
2023-04-09T17:52:45.126Z,4.72
2023-04-09T17:55:12.952Z,6.93
2023-04-09T18:00:08.254Z,5.50
2023-04-09T18:02:46.088Z,5.10
2023-04-09T18:05:13.226Z,6.07
2023-04-09T18:07:40.026Z,5.63
2023-04-09T18:10:07.075Z,7.20
2023-04-09T18:12:33.738Z,12.23
2023-04-09T18:15:00.401Z,7.00
2023-04-09T18:17:27.189Z,5.60
2023-04-09T18:19:54.789Z,8.35
2023-04-09T18:22:21.813Z,6.90
2023-04-09T18:24:48.584Z,6.40
2023-04-09T18:27:16.247Z,7.20
2023-04-09T18:29:43.032Z,7.60
2023-04-09T18:32:09.694Z,9.05
2023-04-09T18:34:37.393Z,13.07
2023-04-09T18:37:04.065Z,8.82
2023-04-09T18:39:31.018Z,13.73
2023-04-09T18:41:57.979Z,32.57
2023-04-09T18:44:24.678Z,9.30
2023-04-09T18:46:52.162Z,8.93
2023-04-09T18:49:18.909Z,9.07
2023-04-09T18:51:45.638Z,16.55
2023-04-09T18:54:12.726Z,22.88
2023-04-09T18:56:40.014Z,12.38
2023-04-09T18:59:06.841Z,12.68
2023-04-09T19:01:33.605Z,10.13
2023-04-09T19:04:00.529Z,11.43
2023-04-09T19:06:28.002Z,9.43
2023-04-09T19:08:58.137Z,9.52
2023-04-09T19:11:26.079Z,12.68
2023-04-09T19:16:20.960Z,9.68
2023-04-09T19:18:47.940Z,8.30
2023-04-09T19:21:14.642Z,8.60
2023-04-09T19:23:41.314Z,8.73
2023-04-09T19:26:08.002Z,8.90
2023-04-09T19:28:34.814Z,8.43
2023-04-09T19:31:03.395Z,8.82
2023-04-09T19:33:30.432Z,8.40
2023-04-09T19:35:57.270Z,7.72
2023-04-09T19:38:23.936Z,7.22
2023-04-09T19:40:50.952Z,7.28
2023-04-09T19:43:17.600Z,6.80
2023-04-09T19:45:44.540Z,7.38
2023-04-09T19:48:12.313Z,7.10
2023-04-09T19:50:40.984Z,6.35
2023-04-09T19:53:07.729Z,7.05
2023-04-09T19:55:34.847Z,6.60
2023-04-09T19:58:01.934Z,6.60
2023-04-09T20:00:29.280Z,6.75
2023-04-09T20:02:57.241Z,7.10
2023-04-09T20:05:24.231Z,7.22
2023-04-09T20:07:52.807Z,9.30
2023-04-09T20:10:19.850Z,8.77
2023-04-09T20:12:47.935Z,7.07
2023-04-09T20:15:15.301Z,109.20
2023-04-09T20:17:42.016Z,25.33
2023-04-09T20:20:09.266Z,19.55
2023-04-09T20:22:36.112Z,13.30
2023-04-09T20:25:02.840Z,37.28
2023-04-09T20:27:29.537Z,42.72
2023-04-09T20:29:56.475Z,27.13
2023-04-09T20:32:23.191Z,18.10
2023-04-09T20:34:49.888Z,17.45
2023-04-09T20:37:16.579Z,20.27
2023-04-09T20:39:43.437Z,21.10
2023-04-09T20:42:10.176Z,19.23
2023-04-09T20:44:36.835Z,19.38
2023-04-09T20:47:03.509Z,18.10
2023-04-09T20:49:30.194Z,12.05
2023-04-09T20:51:56.909Z,16.48
2023-04-09T20:54:23.637Z,15.63
2023-04-09T20:56:51.360Z,12.63
2023-04-09T20:59:19.323Z,15.05
2023-04-09T21:04:13.173Z,11.33
2023-04-09T21:06:40.444Z,14.45
2023-04-09T21:09:07.108Z,14.05
2023-04-09T21:11:33.802Z,15.15
2023-04-09T21:14:00.624Z,10.75
2023-04-09T21:16:28.572Z,17.20
2023-04-09T21:21:22.494Z,13.07
2023-04-09T21:23:49.185Z,10.30
2023-04-09T21:26:15.874Z,9.85
2023-04-09T21:28:42.974Z,8.07
2023-04-09T21:31:11.061Z,6.90
2023-04-09T21:33:39.286Z,6.35
2023-04-09T21:36:07.933Z,6.47
2023-04-09T21:38:34.909Z,6.72
2023-04-09T21:41:01.890Z,6.03
2023-04-09T21:43:29.425Z,5.90
2023-04-09T21:45:57.092Z,6.05
2023-04-09T21:48:24.168Z,6.65
2023-04-09T21:50:50.979Z,6.00
2023-04-09T21:53:17.761Z,12.63
2023-04-09T21:55:44.610Z,14.85
2023-04-09T21:58:12.042Z,7.90
2023-04-09T22:00:38.811Z,6.70
2023-04-09T22:03:05.647Z,6.13
2023-04-09T22:05:34.418Z,6.28
2023-04-09T22:08:01.294Z,5.95
2023-04-09T22:10:28.456Z,6.13
2023-04-09T22:12:55.810Z,5.75
2023-04-09T22:15:22.562Z,6.22
2023-04-09T22:17:49.344Z,5.85
2023-04-09T22:20:16.212Z,6.07
2023-04-09T22:22:43.019Z,6.15
2023-04-09T22:25:11.645Z,6.07
2023-04-09T22:27:38.486Z,5.75
2023-04-09T22:30:06.616Z,5.75
2023-04-09T22:32:33.587Z,6.00
2023-04-09T22:35:00.606Z,5.57
2023-04-09T22:37:27.866Z,5.47
2023-04-09T22:39:54.596Z,6.07
2023-04-09T22:42:21.528Z,5.70
2023-04-09T22:44:48.356Z,6.03
2023-04-09T22:47:15.123Z,6.10
2023-04-09T22:49:41.783Z,5.72
2023-04-09T22:52:08.532Z,6.15
2023-04-09T22:54:35.499Z,6.15
2023-04-09T22:57:02.332Z,5.73
2023-04-09T22:59:38.968Z,6.55
2023-04-09T23:02:06.705Z,6.13
2023-04-09T23:04:34.935Z,5.53
2023-04-09T23:07:02.514Z,6.20
2023-04-09T23:09:30.984Z,5.28
2023-04-09T23:11:57.976Z,5.78
2023-04-09T23:14:24.717Z,5.97
2023-04-09T23:16:51.401Z,6.35
2023-04-09T23:19:18.072Z,5.55
2023-04-09T23:21:44.799Z,5.95
2023-04-09T23:24:11.568Z,13.85
2023-04-09T23:26:38.224Z,7.13
2023-04-09T23:29:04.904Z,9.60
2023-04-09T23:31:32.109Z,5.82
2023-04-09T23:33:58.924Z,5.63
2023-04-09T23:36:26.151Z,5.78
2023-04-09T23:38:52.819Z,5.50
2023-04-09T23:41:19.603Z,5.53
2023-04-09T23:43:46.921Z,5.72
2023-04-09T23:46:13.625Z,5.95
2023-04-09T23:48:40.407Z,5.18
2023-04-09T23:51:07.229Z,5.78
2023-04-09T23:53:33.883Z,5.38
2023-04-09T23:56:00.727Z,5.60
2023-04-09T23:58:27.419Z,4.97
